首页
METAR-TAF:

METAR-TAF

机场 :

瓦岱國際機場

永珍, 老挝

纬度: 17-57N, 经度: 102-34E, 海拔: 171米

当前天气观测

该预报发布于31分钟前的04:00 UTC
风速6节,风向
温度 27°C
湿度 54%
气压 1017 hPa
能見度: 7000
少量云层高于2000英尺

METAR: VLVT 190400Z 09006KT 7000 FEW020 27/17 Q1017 NOSIG

时间: 11:31 (04:31 UTC)

预报

该预报发布于5小时和31分钟前的23:00 UTC
预报有效从19日的 00点(UTC)到 19日的 24点(UTC)
风速4节,风向东北
能見度: 8000
少量云层高于2000英尺
少量云层高于5000英尺

TAF: VLVT 182300Z 1900/1924 04004KT 8000 FEW020 FEW050

超过4000个机场的气象观测和天气预报(METAR&TAF报告)。

可查询的气象台以黄色和红色小点在地图上表示。

将鼠标移到小点上方,可查看气象台名称。

然后点击查看天气观测和预报。

如需切换地图:点击带黑十字的绿色按钮放大地图;点击带横线的绿色按钮缩小地图;或者点击绿色箭头查看邻近地区的地图。


METAR-TAF: